Time;durP1;ratioP1;P1;durP2;ratioP2;P2;SDS_P1;SDS_P2;PMS_P1;PMS_P2;Temp;Humidity;BMP_temperature;BMP_pressure;BME280_temperature;BME280_humidity;BME280_pressure;Samples;Min_cycle;Max_cycle;Signal;HPM_P1;HPM_P2
2023/10/20 00:01:34;;;;;;;8.43;5.28;;;;;;;4.20;64.08;99360.13;4981661;28;23121;-72
2023/10/20 00:03:59;;;;;;;5.70;4.90;;;;;;;3.93;64.67;99349.06;4983973;28;20111;-71
2023/10/20 00:06:25;;;;;;;7.07;5.65;;;;;;;3.98;65.02;99354.94;4978785;28;20223;-71
2023/10/20 00:08:50;;;;;;;4.63;3.78;;;;;;;3.98;64.56;99351.47;4981849;28;20044;-72
2023/10/20 00:11:16;;;;;;;4.28;3.55;;;;;;;4.00;64.52;99345.34;4981164;28;20443;-70
2023/10/20 00:13:42;;;;;;;5.07;3.60;;;;;;;3.89;65.14;99342.31;4970260;28;20044;-71
2023/10/20 00:16:07;;;;;;;8.57;4.03;;;;;;;4.08;64.55;99358.00;4970749;28;20048;-70
2023/10/20 00:18:33;;;;;;;6.88;4.93;;;;;;;4.06;64.56;99348.63;4976872;28;20639;-73
2023/10/20 00:20:58;;;;;;;4.82;3.38;;;;;;;4.15;64.37;99332.75;4982472;28;20037;-70
2023/10/20 00:23:24;;;;;;;4.03;3.55;;;;;;;4.22;64.18;99322.09;4977508;28;20054;-69
2023/10/20 00:25:49;;;;;;;6.00;3.95;;;;;;;4.23;63.94;99322.97;4983345;28;20255;-70
2023/10/20 00:28:15;;;;;;;6.15;4.65;;;;;;;4.04;64.58;99319.41;4981627;28;20061;-69
2023/10/20 00:30:41;;;;;;;4.97;3.85;;;;;;;4.05;64.24;99314.19;4978222;28;20034;-68
2023/10/20 00:33:07;;;;;;;4.60;3.58;;;;;;;4.00;64.82;99324.66;4995829;28;20042;-68
2023/10/20 00:35:33;;;;;;;5.30;4.32;;;;;;;4.06;64.43;99323.59;4980607;28;20378;-68
2023/10/20 00:37:59;;;;;;;4.68;3.55;;;;;;;4.26;64.05;99324.59;4981309;28;20073;-69
2023/10/20 00:40:25;;;;;;;5.93;3.78;;;;;;;4.30;64.15;99332.19;4976008;28;20466;-72
2023/10/20 00:42:51;;;;;;;4.55;4.03;;;;;;;4.25;63.92;99331.50;4967820;28;20121;-72
2023/10/20 00:45:16;;;;;;;5.18;3.13;;;;;;;3.97;64.53;99350.66;4971246;28;20117;-73
2023/10/20 00:47:44;;;;;;;4.03;3.05;;;;;;;3.91;64.79;99350.84;4990967;28;20860;-72
2023/10/20 00:50:13;;;;;;;4.60;2.88;;;;;;;4.00;64.79;99353.09;4988372;28;20058;-72
2023/10/20 00:52:44;;;;;;;3.85;3.10;;;;;;;3.94;64.99;99353.34;4964386;28;20076;-70
2023/10/20 00:55:11;;;;;;;3.80;2.40;;;;;;;4.10;64.33;99350.19;4974679;28;20429;-71
2023/10/20 00:57:38;;;;;;;5.45;3.28;;;;;;;4.15;64.39;99332.75;4960426;28;20101;-70
2023/10/20 01:00:04;;;;;;;3.42;2.53;;;;;;;3.82;65.42;99330.53;4984042;28;20040;-70
2023/10/20 01:02:30;;;;;;;4.25;2.10;;;;;;;4.17;63.97;99320.63;4963866;28;20437;-71
2023/10/20 01:04:59;;;;;;;2.85;2.10;;;;;;;4.11;64.60;99305.31;4965250;28;20165;-71
2023/10/20 01:07:25;;;;;;;3.88;2.45;;;;;;;4.03;64.77;99308.22;4945074;28;20031;-71
2023/10/20 01:09:51;;;;;;;3.42;2.42;;;;;;;4.07;64.41;99304.59;4950663;28;20328;-70
2023/10/20 01:12:16;;;;;;;2.85;1.65;;;;;;;4.34;63.72;99301.84;4948330;28;20038;-71
2023/10/20 01:14:42;;;;;;;1.77;1.30;;;;;;;4.20;64.17;99295.47;4972105;28;21057;-70
2023/10/20 01:17:09;;;;;;;3.92;2.38;;;;;;;4.25;64.12;99287.53;4962700;28;20125;-70
2023/10/20 01:19:37;;;;;;;1.80;1.40;;;;;;;4.12;64.47;99286.31;4980545;28;20398;-69
2023/10/20 01:22:04;;;;;;;2.13;1.40;;;;;;;4.07;64.70;99283.06;4960868;28;20047;-69
2023/10/20 01:24:29;;;;;;;2.40;1.83;;;;;;;4.20;64.10;99292.88;4956522;28;20034;-69
2023/10/20 01:26:55;;;;;;;3.83;1.55;;;;;;;3.73;65.24;99284.34;4960779;28;20558;-69
2023/10/20 01:29:21;;;;;;;2.80;1.40;;;;;;;3.99;64.95;99289.38;4979060;28;20034;-71
2023/10/20 01:31:46;;;;;;;2.80;1.17;;;;;;;3.89;64.92;99290.63;4985780;28;20038;-73
2023/10/20 01:34:12;;;;;;;4.13;1.17;;;;;;;3.99;64.72;99297.13;4979829;28;20046;-68
2023/10/20 01:36:37;;;;;;;1.77;0.90;;;;;;;4.13;64.37;99283.69;4974942;28;20049;-68
2023/10/20 01:39:04;;;;;;;1.58;0.95;;;;;;;4.08;64.65;99274.44;4981377;28;20572;-74
2023/10/20 01:41:31;;;;;;;1.38;0.80;;;;;;;4.16;64.45;99264.63;4990077;28;20046;-73
2023/10/20 01:43:56;;;;;;;1.17;0.80;;;;;;;4.07;64.62;99263.22;4967707;28;20469;-72
2023/10/20 01:46:23;;;;;;;1.92;1.00;;;;;;;4.23;64.29;99253.16;4955509;28;20093;-73
2023/10/20 01:48:48;;;;;;;2.55;1.08;;;;;;;4.29;64.03;99242.53;4958413;28;20315;-73
2023/10/20 01:51:14;;;;;;;3.08;1.02;;;;;;;4.31;64.09;99234.72;4949401;28;20034;-75
2023/10/20 01:53:40;;;;;;;1.65;1.27;;;;;;;4.33;63.62;99228.59;4960976;28;20053;-74
2023/10/20 01:56:06;;;;;;;0.75;0.45;;;;;;;4.07;64.59;99216.69;4964082;28;20466;-74
2023/10/20 01:58:32;;;;;;;0.82;0.40;;;;;;;4.10;64.75;99210.56;4944998;28;20066;-73
2023/10/20 02:00:58;;;;;;;1.17;0.63;;;;;;;3.75;65.70;99207.63;4949615;28;20373;-68
2023/10/20 02:03:23;;;;;;;1.30;0.63;;;;;;;4.00;64.89;99200.56;4958908;28;20473;-74
2023/10/20 02:05:49;;;;;;;2.08;0.50;;;;;;;4.10;64.84;99205.41;4977388;28;20042;-69
2023/10/20 02:08:15;;;;;;;3.03;0.60;;;;;;;4.38;63.96;99195.59;4979089;28;20061;-71
2023/10/20 02:10:43;;;;;;;0.85;0.38;;;;;;;4.27;64.30;99212.47;4979045;28;20026;-69
2023/10/20 02:13:08;;;;;;;1.30;0.47;;;;;;;4.13;64.50;99200.94;4978169;28;20499;-72
2023/10/20 02:15:34;;;;;;;0.90;0.38;;;;;;;4.17;64.30;99218.00;4980254;28;20039;-69
2023/10/20 02:18:00;;;;;;;0.95;0.40;;;;;;;4.17;64.31;99207.66;4984232;28;20061;-69
2023/10/20 02:20:27;;;;;;;0.70;0.30;;;;;;;4.01;64.96;99215.19;4977259;28;20187;-70
2023/10/20 02:22:53;;;;;;;2.47;0.73;;;;;;;4.14;64.47;99212.09;4986646;28;20068;-70
2023/10/20 02:25:19;;;;;;;1.15;0.47;;;;;;;4.19;64.24;99211.03;4986153;28;20042;-70
2023/10/20 02:27:47;;;;;;;0.68;0.20;;;;;;;4.41;63.64;99215.34;4974713;28;20065;-69
2023/10/20 02:30:14;;;;;;;0.80;0.20;;;;;;;4.12;64.41;99213.91;4978779;28;20032;-70
2023/10/20 02:32:41;;;;;;;1.05;0.30;;;;;;;4.38;63.87;99203.38;4978258;28;20049;-70
2023/10/20 02:35:08;;;;;;;1.77;0.20;;;;;;;4.35;63.86;99200.91;4981620;28;20496;-70
2023/10/20 02:37:33;;;;;;;0.52;0.20;;;;;;;4.06;64.51;99203.84;4980665;28;20042;-72
2023/10/20 02:39:59;;;;;;;0.70;0.30;;;;;;;3.92;64.48;99197.47;4982555;28;20041;-72
2023/10/20 02:42:25;;;;;;;3.03;0.30;;;;;;;4.21;63.83;99201.47;4973149;28;20648;-72
2023/10/20 02:44:50;;;;;;;0.47;0.20;;;;;;;3.92;64.43;99187.13;4981306;28;20505;-74
2023/10/20 02:47:16;;;;;;;0.98;0.30;;;;;;;4.08;64.69;99212.38;4979613;28;20623;-69
2023/10/20 02:49:41;;;;;;;0.55;0.20;;;;;;;3.99;64.37;99205.81;4972586;28;20026;-69
2023/10/20 02:52:07;;;;;;;0.55;0.20;;;;;;;4.14;63.41;99200.03;4985364;28;20101;-68
2023/10/20 02:54:34;;;;;;;0.73;0.47;;;;;;;4.49;62.60;99207.25;4976201;28;20198;-70
2023/10/20 02:57:00;;;;;;;2.22;0.30;;;;;;;4.17;63.33;99212.00;4987539;28;20034;-70
2023/10/20 02:59:25;;;;;;;1.02;0.20;;;;;;;4.39;63.17;99209.41;4982664;28;20432;-70
2023/10/20 03:01:55;;;;;;;0.43;0.20;;;;;;;4.55;62.04;99215.63;4972527;28;20387;-71
2023/10/20 03:04:21;;;;;;;3.65;0.80;;;;;;;4.46;62.32;99207.41;4987656;28;20029;-71
2023/10/20 03:06:48;;;;;;;0.93;0.20;;;;;;;4.25;63.11;99211.69;4973917;28;20034;-67
2023/10/20 03:09:14;;;;;;;0.60;0.30;;;;;;;4.35;62.59;99203.50;4984429;28;20046;-69
2023/10/20 03:11:40;;;;;;;1.10;0.65;;;;;;;4.52;62.29;99208.00;4973789;28;20510;-69
2023/10/20 03:14:06;;;;;;;0.40;0.20;;;;;;;4.08;63.11;99202.03;4976723;28;20046;-71
2023/10/20 03:16:33;;;;;;;0.80;0.28;;;;;;;4.31;62.48;99173.47;4965239;28;20037;-72
2023/10/20 03:18:58;;;;;;;0.70;0.20;;;;;;;4.39;61.90;99176.59;4979689;28;20366;-72
2023/10/20 03:21:24;;;;;;;3.72;0.95;;;;;;;4.31;62.45;99183.81;4978790;28;20050;-70
2023/10/20 03:23:50;;;;;;;1.17;0.30;;;;;;;4.35;62.36;99177.63;4976603;28;20505;-72
2023/10/20 03:26:16;;;;;;;0.80;0.30;;;;;;;4.50;61.66;99175.28;4978685;28;20044;-73
2023/10/20 03:28:43;;;;;;;0.90;0.40;;;;;;;4.19;62.24;99174.84;4971756;28;20789;-71
2023/10/20 03:31:09;;;;;;;1.75;0.30;;;;;;;4.04;62.72;99166.84;4986081;28;20026;-72
2023/10/20 03:33:34;;;;;;;0.65;0.55;;;;;;;4.27;61.89;99171.94;4952381;28;20038;-69
2023/10/20 03:36:04;;;;;;;0.88;0.30;;;;;;;4.00;62.88;99150.63;4967448;28;20058;-68
2023/10/20 03:38:30;;;;;;;0.85;0.43;;;;;;;4.19;61.98;99148.13;4973896;28;20038;-71
2023/10/20 03:41:09;;;;;;;0.77;0.40;;;;;;;4.17;62.42;99140.44;4981773;28;20034;-71
2023/10/20 03:43:36;;;;;;;0.90;0.30;;;;;;;4.16;61.99;99143.06;4973229;28;20405;-72
2023/10/20 03:46:04;;;;;;;0.90;0.40;;;;;;;4.02;62.51;99141.91;4979137;28;20041;-71
2023/10/20 03:48:31;;;;;;;1.55;0.57;;;;;;;4.10;62.11;99145.94;5006477;28;20097;-72
2023/10/20 03:50:58;;;;;;;0.88;0.30;;;;;;;4.09;62.14;99139.06;4975610;28;20030;-71
2023/10/20 03:53:27;;;;;;;0.65;0.38;;;;;;;3.82;62.94;99139.28;4981214;28;20042;-72
2023/10/20 03:56:07;;;;;;;0.65;0.30;;;;;;;4.01;62.43;99134.22;4974441;28;20792;-74
2023/10/20 03:58:35;;;;;;;0.77;0.40;;;;;;;3.72;63.27;99132.81;4979070;28;20063;-74
2023/10/20 04:01:02;;;;;;;1.77;0.50;;;;;;;4.05;62.55;99138.38;4976786;28;20485;-70
2023/10/20 04:03:31;;;;;;;5.35;0.80;;;;;;;4.00;62.69;99129.94;4978512;28;20057;-70
2023/10/20 04:05:57;;;;;;;0.50;0.30;;;;;;;3.79;62.84;99118.72;4975546;28;20224;-72
2023/10/20 04:08:24;;;;;;;1.08;0.60;;;;;;;3.65;63.20;99131.34;4993704;28;20556;-72
2023/10/20 04:10:57;;;;;;;1.00;0.32;;;;;;;3.92;62.52;99116.50;4981563;28;20169;-75
2023/10/20 04:13:25;;;;;;;1.50;0.40;;;;;;;3.97;62.40;99107.63;4978916;28;20084;-73
2023/10/20 04:15:52;;;;;;;0.90;0.40;;;;;;;4.30;61.54;99103.75;4981437;28;20038;-73
2023/10/20 04:18:19;;;;;;;1.33;0.75;;;;;;;3.64;63.23;99098.66;4982675;28;20066;-71
2023/10/20 04:20:48;;;;;;;0.80;0.30;;;;;;;3.69;62.63;99087.22;4972238;28;20595;-70
2023/10/20 04:23:15;;;;;;;1.45;0.50;;;;;;;3.88;62.13;99087.34;4977545;28;20120;-74
2023/10/20 04:25:52;;;;;;;1.20;0.60;;;;;;;3.87;62.37;99072.72;4991363;28;20367;-72
2023/10/20 04:53:41;;;;;;;1.00;0.43;;;;;;;3.84;61.91;99053.94;4981731;28;20236;-72
2023/10/20 04:56:23;;;;;;;2.47;0.90;;;;;;;3.80;61.98;99043.69;4985809;28;20072;-73
2023/10/20 04:59:05;;;;;;;1.20;0.50;;;;;;;3.76;61.98;99038.72;4978315;28;20064;-70
2023/10/20 05:04:16;;;;;;;1.55;0.57;;;;;;;4.11;61.20;99041.59;4996234;28;20104;-72
2023/10/20 05:06:53;;;;;;;1.13;0.98;;;;;;;4.35;60.20;99053.47;4979727;28;20050;-72
2023/10/20 05:09:19;;;;;;;4.47;1.27;;;;;;;3.81;61.70;99036.81;4983339;28;20035;-72
2023/10/20 05:11:46;;;;;;;2.17;0.55;;;;;;;3.96;61.77;99062.03;4976604;28;20572;-77
2023/10/20 05:14:12;;;;;;;1.35;0.82;;;;;;;3.63;62.10;99063.38;4979096;28;20048;-74
2023/10/20 05:16:37;;;;;;;1.20;0.70;;;;;;;3.71;61.76;99040.66;4977083;28;20469;-71
2023/10/20 05:19:04;;;;;;;4.18;0.80;;;;;;;4.06;60.98;99040.97;4979616;28;20126;-71
2023/10/20 05:21:33;;;;;;;1.27;0.75;;;;;;;3.80;61.58;99024.78;4979455;28;20158;-72
2023/10/20 05:24:03;;;;;;;2.70;1.13;;;;;;;3.69;61.66;99034.72;4959002;28;20679;-72
2023/10/20 05:26:30;;;;;;;1.63;0.80;;;;;;;3.70;61.84;99028.66;4975570;28;20038;-74
2023/10/20 05:28:56;;;;;;;1.40;0.85;;;;;;;3.90;61.05;99026.09;4958454;28;20039;-74
2023/10/20 05:31:26;;;;;;;1.90;0.80;;;;;;;3.73;61.47;99011.28;4962482;28;20545;-73
2023/10/20 05:33:52;;;;;;;5.57;1.05;;;;;;;3.96;60.39;99018.09;4970379;28;20047;-74
2023/10/20 05:36:18;;;;;;;1.10;0.50;;;;;;;3.78;60.87;99021.41;4967322;28;20033;-74
2023/10/20 05:38:44;;;;;;;1.55;0.80;;;;;;;3.99;60.68;99012.78;4973374;28;20489;-73
2023/10/20 05:41:11;;;;;;;1.77;0.77;;;;;;;4.05;60.29;99011.69;4979261;28;20122;-73
2023/10/20 05:43:38;;;;;;;1.55;0.88;;;;;;;3.97;60.63;99030.09;4977104;28;20046;-74
2023/10/20 05:46:04;;;;;;;1.00;0.50;;;;;;;3.87;60.75;99039.13;4975965;28;20089;-73
2023/10/20 05:48:30;;;;;;;1.30;0.45;;;;;;;3.88;60.76;99025.31;4978703;28;20045;-72
2023/10/20 05:50:57;;;;;;;3.92;1.10;;;;;;;3.67;61.25;99037.38;4974995;28;20030;-72
2023/10/20 05:53:26;;;;;;;1.23;0.47;;;;;;;3.75;60.87;99029.31;4978642;28;20042;-73
2023/10/20 05:55:52;;;;;;;1.20;0.63;;;;;;;3.54;60.87;99037.03;4977050;28;20117;-72
2023/10/20 05:58:18;;;;;;;2.15;1.27;;;;;;;3.67;61.13;99021.03;4970684;28;20038;-71
2023/10/20 06:00:44;;;;;;;1.52;0.70;;;;;;;3.69;60.74;99003.72;4982201;28;20041;-71
2023/10/20 06:03:10;;;;;;;1.90;0.82;;;;;;;3.63;61.27;99015.16;4978607;28;20042;-72
2023/10/20 06:05:36;;;;;;;1.13;0.50;;;;;;;3.82;60.93;99015.22;4977213;28;20038;-72
2023/10/20 06:08:02;;;;;;;1.70;0.80;;;;;;;3.63;61.35;99022.91;4975106;28;20308;-73
2023/10/20 06:10:29;;;;;;;1.40;0.80;;;;;;;3.45;61.77;99029.66;4969940;28;20095;-73
2023/10/20 06:12:55;;;;;;;1.88;0.73;;;;;;;3.48;61.80;99034.69;4967522;28;20048;-72
2023/10/20 06:15:21;;;;;;;1.50;0.98;;;;;;;3.58;61.50;99028.25;4979052;28;20411;-73
2023/10/20 06:17:49;;;;;;;2.03;0.63;;;;;;;3.28;62.00;99019.13;4966646;28;20042;-73
2023/10/20 06:20:15;;;;;;;1.98;0.90;;;;;;;3.26;61.84;99013.16;4989821;28;20450;-70
2023/10/20 06:22:42;;;;;;;2.38;0.80;;;;;;;3.55;61.61;98979.28;4959318;28;20655;-71
2023/10/20 06:25:15;;;;;;;1.40;0.73;;;;;;;3.42;61.36;98985.84;4966856;28;20042;-72
2023/10/20 06:27:45;;;;;;;3.08;0.88;;;;;;;3.78;60.33;98998.16;4963110;28;20038;-73
2023/10/20 06:30:23;;;;;;;2.33;1.33;;;;;;;3.59;60.89;98993.75;4965203;28;20109;-73
2023/10/20 06:35:39;;;;;;;2.25;1.05;;;;;;;3.58;60.79;98980.91;4959009;28;20200;-73
2023/10/20 06:40:33;;;;;;;1.20;0.85;;;;;;;3.52;60.81;98982.00;4957640;28;20498;-72
2023/10/20 06:43:00;;;;;;;2.03;0.90;;;;;;;3.54;60.86;98975.03;4956614;28;20118;-73
2023/10/20 06:45:25;;;;;;;1.83;1.10;;;;;;;3.37;60.92;98965.38;4958575;28;20134;-73
2023/10/20 06:47:51;;;;;;;2.85;1.50;;;;;;;3.59;60.21;98957.59;4965577;28;20144;-72
2023/10/20 06:50:16;;;;;;;2.00;1.00;;;;;;;3.54;60.58;98966.44;4961627;28;20080;-72
2023/10/20 06:52:42;;;;;;;1.45;1.02;;;;;;;3.76;60.20;98956.03;4969548;28;20205;-73
2023/10/20 06:55:09;;;;;;;2.60;1.15;;;;;;;3.72;60.34;98967.44;4973065;28;20030;-72
2023/10/20 06:57:35;;;;;;;2.38;0.85;;;;;;;3.73;59.99;98974.25;4972926;28;20092;-71
2023/10/20 07:00:16;;;;;;;2.03;1.10;;;;;;;3.83;60.05;98967.81;4944190;28;20038;-72
2023/10/20 07:02:46;;;;;;;2.35;0.85;;;;;;;3.57;60.59;98964.56;4958756;28;20054;-70
2023/10/20 07:05:13;;;;;;;3.60;0.77;;;;;;;3.51;60.60;98975.16;4957570;28;20058;-72
2023/10/20 07:07:39;;;;;;;2.40;0.60;;;;;;;3.74;60.20;98981.13;4967450;28;20481;-72
2023/10/20 07:10:05;;;;;;;6.72;1.00;;;;;;;3.52;60.81;98986.34;4965660;28;20816;-72
2023/10/20 07:12:31;;;;;;;1.30;0.52;;;;;;;3.35;61.44;98987.00;4958753;28;20237;-73
2023/10/20 07:14:56;;;;;;;1.50;0.80;;;;;;;3.37;61.50;98972.28;4959889;28;20317;-72
2023/10/20 07:17:22;;;;;;;1.50;0.70;;;;;;;2.97;62.51;98994.50;4966272;28;20152;-72
2023/10/20 07:19:47;;;;;;;2.17;1.00;;;;;;;3.02;62.54;98984.00;4978195;28;20144;-72
2023/10/20 07:22:13;;;;;;;2.33;0.82;;;;;;;3.31;62.04;98985.44;4963846;28;20565;-73
2023/10/20 07:24:41;;;;;;;1.00;0.35;;;;;;;2.84;63.26;98980.38;4979295;28;20132;-71
2023/10/20 07:27:07;;;;;;;2.05;0.70;;;;;;;2.89;63.43;99006.84;4975975;28;21824;-70
2023/10/20 07:29:32;;;;;;;1.30;0.63;;;;;;;2.82;63.58;98980.44;4964855;28;20542;-70
2023/10/20 07:31:58;;;;;;;1.92;0.70;;;;;;;3.06;63.26;98967.47;4977370;28;20040;-72
2023/10/20 07:34:25;;;;;;;1.45;0.90;;;;;;;2.97;63.07;98971.25;4964181;28;20145;-71
2023/10/20 07:36:51;;;;;;;1.95;0.73;;;;;;;2.97;62.80;98968.69;4973839;28;20250;-70
2023/10/20 07:39:16;;;;;;;2.92;0.88;;;;;;;2.78;63.53;98953.09;4957283;28;20113;-71
2023/10/20 07:41:45;;;;;;;1.13;0.35;;;;;;;2.94;63.42;98948.16;4958053;28;20050;-70
2023/10/20 07:44:12;;;;;;;1.80;0.80;;;;;;;2.91;63.69;98956.00;4987488;28;20111;-70
2023/10/20 07:46:41;;;;;;;1.73;0.70;;;;;;;2.89;63.84;98950.06;4984132;28;20049;-71
2023/10/20 07:49:13;;;;;;;6.65;0.75;;;;;;;2.96;63.56;98961.84;4970320;28;20115;-72
2023/10/20 07:51:40;;;;;;;2.83;0.70;;;;;;;2.63;64.42;98964.81;4984049;28;20497;-71
2023/10/20 07:54:07;;;;;;;1.77;0.90;;;;;;;3.01;63.68;98951.34;4986258;28;20560;-71
2023/10/20 07:56:32;;;;;;;1.38;0.52;;;;;;;3.14;63.48;98940.47;4994113;28;20056;-71
2023/10/20 07:58:58;;;;;;;1.92;0.82;;;;;;;3.20;63.16;98949.69;4971808;28;20045;-70
2023/10/20 08:01:24;;;;;;;1.73;0.80;;;;;;;3.05;63.95;98953.75;4978850;28;20034;-70
2023/10/20 08:03:50;;;;;;;3.67;0.75;;;;;;;3.03;63.82;98947.81;4978966;28;20069;-69
2023/10/20 08:06:15;;;;;;;3.35;0.70;;;;;;;3.07;64.03;98951.94;4976094;28;20088;-68
2023/10/20 08:08:41;;;;;;;1.70;0.50;;;;;;;3.14;63.56;98953.38;4978299;28;20690;-69
2023/10/20 08:11:07;;;;;;;1.23;0.70;;;;;;;3.06;63.71;98947.66;4966235;28;20448;-69
2023/10/20 08:13:36;;;;;;;1.20;0.47;;;;;;;3.14;64.10;98939.63;4981520;28;20044;-69
2023/10/20 08:16:03;;;;;;;2.05;0.60;;;;;;;3.08;63.58;98940.72;4986419;28;20489;-68
2023/10/20 08:18:33;;;;;;;2.55;0.70;;;;;;;2.83;64.34;98927.09;4966910;28;20120;-72
2023/10/20 08:21:09;;;;;;;1.50;0.63;;;;;;;3.03;64.05;98924.56;4975538;28;20044;-68
2023/10/20 08:23:37;;;;;;;1.30;0.47;;;;;;;2.89;63.88;98916.53;4981555;28;21023;-69
2023/10/20 08:26:03;;;;;;;1.33;0.50;;;;;;;2.95;64.15;98939.50;4976440;28;20025;-68
2023/10/20 08:28:29;;;;;;;1.95;0.70;;;;;;;3.18;63.57;98916.22;4961871;28;20217;-69
2023/10/20 08:31:07;;;;;;;1.65;0.60;;;;;;;3.08;63.31;98914.91;4980029;28;20035;-69
2023/10/20 08:33:36;;;;;;;1.65;0.82;;;;;;;2.81;64.31;98913.41;4978516;28;20077;-71
2023/10/20 08:36:11;;;;;;;2.00;0.98;;;;;;;2.62;64.82;98910.69;4974543;28;20030;-68
2023/10/20 08:38:39;;;;;;;2.33;1.00;;;;;;;2.89;64.60;98906.19;4984822;28;20627;-69
2023/10/20 08:41:13;;;;;;;2.00;0.77;;;;;;;3.09;63.88;98914.00;4961731;28;20282;-68
2023/10/20 08:43:40;;;;;;;2.10;1.05;;;;;;;2.84;64.56;98915.88;4977809;28;20070;-71
2023/10/20 08:46:09;;;;;;;2.20;0.82;;;;;;;2.97;64.27;98910.16;4975344;28;20113;-69
2023/10/20 08:48:37;;;;;;;1.63;0.77;;;;;;;2.62;65.46;98919.28;4978613;28;20363;-69
2023/10/20 08:51:04;;;;;;;2.83;0.93;;;;;;;2.95;64.60;98903.38;4975026;28;20026;-68
2023/10/20 08:53:34;;;;;;;2.92;1.02;;;;;;;3.10;64.09;98913.09;4978846;28;20073;-69
2023/10/20 08:56:01;;;;;;;2.05;1.10;;;;;;;3.22;63.81;98916.06;4974916;28;20105;-68
2023/10/20 08:58:31;;;;;;;2.95;1.13;;;;;;;3.19;63.76;98910.13;4978338;28;20058;-68
2023/10/20 09:00:57;;;;;;;2.78;1.42;;;;;;;2.98;64.13;98908.44;4975145;28;20064;-68
2023/10/20 09:03:25;;;;;;;2.55;1.30;;;;;;;3.14;63.72;98909.50;4979794;28;20038;-68
2023/10/20 09:05:53;;;;;;;2.85;1.48;;;;;;;2.96;64.45;98897.34;4978765;28;20030;-68
2023/10/20 09:08:18;;;;;;;2.40;1.02;;;;;;;3.11;63.82;98886.41;4975321;28;20082;-68
2023/10/20 09:10:49;;;;;;;2.78;1.10;;;;;;;3.12;63.63;98890.66;4962958;28;20120;-68
2023/10/20 09:13:14;;;;;;;4.82;1.35;;;;;;;3.08;63.42;98877.94;4972339;28;20482;-69
2023/10/20 09:15:40;;;;;;;2.72;1.00;;;;;;;3.11;63.88;98904.47;4977752;28;20031;-69
2023/10/20 09:18:09;;;;;;;3.78;1.92;;;;;;;3.11;63.59;98899.31;4978408;28;20108;-68
2023/10/20 09:20:35;;;;;;;4.25;2.50;;;;;;;2.75;64.08;98899.84;4974520;28;20084;-68
2023/10/20 09:23:08;;;;;;;2.72;1.48;;;;;;;3.10;63.06;98895.03;4972869;28;20117;-69
2023/10/20 09:25:33;;;;;;;4.30;1.92;;;;;;;3.34;62.58;98889.81;4983554;28;20041;-69
2023/10/20 09:27:58;;;;;;;6.95;1.92;;;;;;;2.96;63.38;98894.75;4977041;28;20042;-68
2023/10/20 09:30:24;;;;;;;2.97;1.55;;;;;;;3.27;62.38;98883.16;4975024;28;20052;-68
2023/10/20 09:32:50;;;;;;;4.10;2.10;;;;;;;3.49;62.11;98875.38;4981060;28;20413;-68
2023/10/20 09:35:16;;;;;;;3.25;1.90;;;;;;;3.14;63.02;98875.09;4971367;28;20044;-68
2023/10/20 09:37:42;;;;;;;3.30;2.15;;;;;;;3.22;62.58;98870.44;4977223;28;20046;-68
2023/10/20 09:40:09;;;;;;;6.25;2.95;;;;;;;2.98;63.31;98872.31;4972289;28;20054;-68
2023/10/20 09:42:59;;;;;;;4.00;1.73;;;;;;;2.88;62.97;98863.25;4975854;28;20455;-69
2023/10/20 09:45:37;;;;;;;3.65;2.17;;;;;;;2.59;64.11;98878.13;4973868;28;20042;-69
2023/10/20 09:48:14;;;;;;;3.95;2.50;;;;;;;3.09;62.67;98877.88;4974395;28;20045;-68
2023/10/20 09:50:40;;;;;;;8.55;2.08;;;;;;;2.97;63.10;98881.78;4976643;28;20033;-69
2023/10/20 09:53:06;;;;;;;3.60;2.20;;;;;;;3.23;62.63;98877.31;4973373;28;20061;-68
2023/10/20 09:55:33;;;;;;;4.35;2.70;;;;;;;3.14;63.00;98863.03;4974047;28;20895;-68
2023/10/20 09:57:58;;;;;;;3.95;2.00;;;;;;;2.97;63.48;98857.72;4979940;28;20061;-71
2023/10/20 10:00:31;;;;;;;5.38;2.40;;;;;;;3.32;62.88;98863.19;4963658;28;20030;-70
2023/10/20 10:03:00;;;;;;;5.40;2.70;;;;;;;3.09;63.36;98872.72;4981502;28;20464;-71
2023/10/20 10:05:27;;;;;;;4.10;2.33;;;;;;;3.09;63.32;98866.69;4984117;28;20045;-69
2023/10/20 10:08:09;;;;;;;4.55;2.60;;;;;;;3.34;62.64;98858.81;4984123;28;20195;-71
2023/10/20 10:10:37;;;;;;;4.03;1.92;;;;;;;3.36;62.85;98863.00;4973877;28;20292;-69
2023/10/20 10:13:06;;;;;;;6.93;2.67;;;;;;;2.89;64.24;98857.16;4975476;28;20042;-69
2023/10/20 10:15:45;;;;;;;4.30;2.38;;;;;;;3.16;63.43;98856.06;4976756;28;20533;-68
2023/10/20 10:18:13;;;;;;;6.90;2.72;;;;;;;3.42;62.89;98843.81;4983656;28;20042;-68
2023/10/20 10:20:49;;;;;;;3.42;2.17;;;;;;;3.06;63.73;98862.50;4977787;28;20113;-69
2023/10/20 10:23:14;;;;;;;4.38;2.08;;;;;;;3.13;63.14;98845.84;4976024;28;20432;-69
2023/10/20 10:25:42;;;;;;;2.55;1.58;;;;;;;3.14;63.55;98854.44;4978291;28;20034;-69
2023/10/20 10:28:15;;;;;;;5.03;2.22;;;;;;;3.17;63.52;98860.31;4984186;28;20495;-68
2023/10/20 10:30:42;;;;;;;3.13;1.88;;;;;;;3.37;62.99;98859.50;4963515;28;20568;-71
2023/10/20 10:33:11;;;;;;;4.95;1.98;;;;;;;3.06;63.93;98854.75;4977518;28;20061;-68
2023/10/20 10:35:38;;;;;;;2.22;1.48;;;;;;;3.19;63.67;98842.19;4979511;28;20046;-69
2023/10/20 10:38:06;;;;;;;5.07;2.50;;;;;;;3.36;63.09;98833.75;4984255;28;20054;-69
2023/10/20 10:40:32;;;;;;;3.47;1.83;;;;;;;3.21;63.48;98834.38;4976141;28;20034;-69
2023/10/20 10:42:57;;;;;;;2.70;1.70;;;;;;;3.24;63.52;98836.81;4993991;28;20061;-69
2023/10/20 10:45:29;;;;;;;3.25;1.08;;;;;;;3.17;63.35;98831.91;4973696;28;20064;-69
2023/10/20 10:48:11;;;;;;;4.40;2.00;;;;;;;3.28;63.58;98836.63;4979580;28;20049;-69
2023/10/20 10:50:39;;;;;;;2.35;1.23;;;;;;;3.14;63.97;98826.06;4978049;28;20034;-69
2023/10/20 10:53:04;;;;;;;2.88;1.85;;;;;;;3.11;64.15;98842.50;4983944;28;20484;-71
2023/10/20 10:55:31;;;;;;;3.00;1.15;;;;;;;3.27;63.58;98834.09;4991281;28;20069;-69
2023/10/20 10:58:06;;;;;;;2.63;1.33;;;;;;;3.07;64.44;98825.47;4980565;28;20053;-69
2023/10/20 11:00:32;;;;;;;3.63;0.90;;;;;;;2.99;64.28;98814.63;4959433;28;20497;-68
2023/10/20 11:02:58;;;;;;;2.83;0.93;;;;;;;3.29;63.40;98816.84;4966972;28;20049;-71
2023/10/20 11:05:24;;;;;;;4.63;1.20;;;;;;;3.33;63.81;98815.81;4974006;28;20185;-69
2023/10/20 11:07:57;;;;;;;2.15;1.17;;;;;;;2.82;64.63;98835.94;4980336;28;20038;-69
2023/10/20 11:10:28;;;;;;;4.47;1.00;;;;;;;3.05;64.48;98811.78;4988115;28;20357;-69
2023/10/20 11:12:56;;;;;;;1.27;0.82;;;;;;;3.04;64.40;98810.09;4979550;28;20034;-69
2023/10/20 11:15:25;;;;;;;2.67;1.27;;;;;;;3.18;64.07;98792.28;4970635;28;20112;-69
2023/10/20 11:17:51;;;;;;;2.65;0.80;;;;;;;3.38;63.14;98791.47;4987548;28;20072;-69
2023/10/20 11:20:20;;;;;;;1.65;0.80;;;;;;;3.32;63.80;98788.31;4971425;28;20042;-69
2023/10/20 11:22:51;;;;;;;2.80;0.98;;;;;;;3.49;63.12;98791.00;4977815;28;20060;-68
2023/10/20 11:25:21;;;;;;;5.85;1.23;;;;;;;3.14;63.74;98780.41;4979226;28;20038;-69
2023/10/20 11:27:54;;;;;;;3.40;1.75;;;;;;;3.16;63.91;98778.63;4978906;28;20883;-69
2023/10/20 11:30:41;;;;;;;2.08;1.15;;;;;;;2.79;64.63;98783.66;4972333;28;20040;-69
2023/10/20 11:33:09;;;;;;;2.70;1.05;;;;;;;2.89;64.66;98769.44;4976395;28;20065;-69
2023/10/20 11:35:35;;;;;;;1.92;0.93;;;;;;;2.84;64.67;98774.78;4977611;28;20064;-69
2023/10/20 11:38:01;;;;;;;2.22;1.13;;;;;;;3.01;64.21;98773.28;4982136;28;20203;-69
2023/10/20 11:40:28;;;;;;;1.77;0.77;;;;;;;2.92;64.40;98753.84;4973879;28;20113;-68
2023/10/20 11:42:54;;;;;;;2.80;0.77;;;;;;;2.96;63.94;98755.41;4990521;28;20038;-69
2023/10/20 11:45:20;;;;;;;2.30;0.50;;;;;;;2.85;64.21;98750.69;4984975;28;20296;-69
2023/10/20 11:47:46;;;;;;;1.67;0.45;;;;;;;3.11;63.46;98747.00;4982968;28;20061;-69
2023/10/20 11:50:12;;;;;;;2.63;0.75;;;;;;;3.32;63.28;98742.66;4995139;28;20100;-69
2023/10/20 11:52:39;;;;;;;2.70;1.17;;;;;;;3.11;63.57;98728.94;4981867;28;20496;-69
2023/10/20 11:55:10;;;;;;;1.88;0.82;;;;;;;3.03;63.76;98740.50;4984367;28;20549;-68
2023/10/20 11:57:36;;;;;;;1.10;0.60;;;;;;;3.15;63.67;98720.13;4982614;28;20070;-70
2023/10/20 12:00:07;;;;;;;2.03;0.98;;;;;;;3.44;63.17;98730.13;4984577;28;20085;-69
2023/10/20 12:02:40;;;;;;;1.45;0.63;;;;;;;3.04;63.52;98730.09;4981506;28;20324;-69
2023/10/20 12:05:07;;;;;;;1.63;0.90;;;;;;;3.32;62.99;98721.19;4981176;28;20396;-69
2023/10/20 12:07:33;;;;;;;4.65;0.50;;;;;;;2.89;63.81;98717.84;4981079;28;20042;-69
2023/10/20 12:09:59;;;;;;;4.30;0.70;;;;;;;3.18;63.52;98719.19;4982915;28;20405;-70
2023/10/20 12:12:24;;;;;;;0.88;0.43;;;;;;;2.62;64.25;98710.34;4980017;28;20096;-69
2023/10/20 12:14:50;;;;;;;2.78;0.70;;;;;;;2.85;64.27;98708.56;4983911;28;20037;-69
2023/10/20 12:17:16;;;;;;;1.63;0.75;;;;;;;2.85;64.26;98703.41;4986197;28;20058;-69